sensor_id;sensor_type;location;lat;lon;timestamp;P1;durP1;ratioP1;P2;durP2;ratioP2
72590;SDS011;60625;51.212;5.952;2023-11-21T00:03:21;23.60;;;7.80;;
72590;SDS011;60625;51.212;5.952;2023-11-21T00:08:23;21.40;;;7.90;;
72590;SDS011;60625;51.212;5.952;2023-11-21T00:13:24;20.60;;;7.90;;
72590;SDS011;60625;51.212;5.952;2023-11-21T00:18:24;15.40;;;8.10;;
72590;SDS011;60625;51.212;5.952;2023-11-21T00:23:25;22.90;;;8.90;;
72590;SDS011;60625;51.212;5.952;2023-11-21T00:28:26;19.80;;;9.00;;
72590;SDS011;60625;51.212;5.952;2023-11-21T00:33:27;17.10;;;9.60;;
72590;SDS011;60625;51.212;5.952;2023-11-21T00:38:28;21.60;;;9.50;;
72590;SDS011;60625;51.212;5.952;2023-11-21T00:43:28;19.80;;;9.40;;
72590;SDS011;60625;51.212;5.952;2023-11-21T00:48:29;18.80;;;9.60;;
72590;SDS011;60625;51.212;5.952;2023-11-21T00:53:29;16.90;;;8.70;;
72590;SDS011;60625;51.212;5.952;2023-11-21T00:58:30;20.80;;;9.30;;
72590;SDS011;60625;51.212;5.952;2023-11-21T01:03:31;18.50;;;8.70;;
72590;SDS011;60625;51.212;5.952;2023-11-21T01:08:31;21.40;;;9.30;;
72590;SDS011;60625;51.212;5.952;2023-11-21T01:13:32;22.50;;;8.00;;
72590;SDS011;60625;51.212;5.952;2023-11-21T01:18:36;25.60;;;10.00;;
72590;SDS011;60625;51.212;5.952;2023-11-21T01:23:37;27.30;;;10.50;;
72590;SDS011;60625;51.212;5.952;2023-11-21T01:28:37;26.80;;;11.50;;
72590;SDS011;60625;51.212;5.952;2023-11-21T01:33:38;27.70;;;10.40;;
72590;SDS011;60625;51.212;5.952;2023-11-21T01:38:38;26.20;;;10.60;;
72590;SDS011;60625;51.212;5.952;2023-11-21T01:43:39;22.80;;;9.50;;
72590;SDS011;60625;51.212;5.952;2023-11-21T01:48:39;27.00;;;10.90;;
72590;SDS011;60625;51.212;5.952;2023-11-21T01:53:40;26.90;;;11.50;;
72590;SDS011;60625;51.212;5.952;2023-11-21T01:58:41;25.70;;;11.00;;
72590;SDS011;60625;51.212;5.952;2023-11-21T02:03:44;25.20;;;11.60;;
72590;SDS011;60625;51.212;5.952;2023-11-21T02:08:44;23.60;;;11.40;;
72590;SDS011;60625;51.212;5.952;2023-11-21T02:13:46;24.70;;;11.30;;
72590;SDS011;60625;51.212;5.952;2023-11-21T02:18:47;24.00;;;11.70;;
72590;SDS011;60625;51.212;5.952;2023-11-21T02:23:49;20.30;;;10.80;;
72590;SDS011;60625;51.212;5.952;2023-11-21T02:28:49;19.90;;;10.40;;
72590;SDS011;60625;51.212;5.952;2023-11-21T02:33:50;20.50;;;10.40;;
72590;SDS011;60625;51.212;5.952;2023-11-21T02:38:50;23.10;;;11.70;;
72590;SDS011;60625;51.212;5.952;2023-11-21T02:43:50;23.00;;;12.10;;
72590;SDS011;60625;51.212;5.952;2023-11-21T02:48:52;29.80;;;13.30;;
72590;SDS011;60625;51.212;5.952;2023-11-21T02:53:56;21.60;;;12.00;;
72590;SDS011;60625;51.212;5.952;2023-11-21T02:58:59;23.30;;;11.90;;
72590;SDS011;60625;51.212;5.952;2023-11-21T03:04:00;22.00;;;11.20;;
72590;SDS011;60625;51.212;5.952;2023-11-21T03:09:02;23.40;;;11.90;;
72590;SDS011;60625;51.212;5.952;2023-11-21T03:14:02;23.50;;;12.40;;
72590;SDS011;60625;51.212;5.952;2023-11-21T03:19:03;22.70;;;12.00;;
72590;SDS011;60625;51.212;5.952;2023-11-21T03:24:04;25.20;;;13.80;;
72590;SDS011;60625;51.212;5.952;2023-11-21T03:29:06;20.60;;;11.40;;
72590;SDS011;60625;51.212;5.952;2023-11-21T03:34:15;27.10;;;11.80;;
72590;SDS011;60625;51.212;5.952;2023-11-21T03:39:20;23.70;;;12.10;;
72590;SDS011;60625;51.212;5.952;2023-11-21T03:44:21;26.30;;;13.20;;
72590;SDS011;60625;51.212;5.952;2023-11-21T03:49:22;28.50;;;13.20;;
72590;SDS011;60625;51.212;5.952;2023-11-21T03:54:23;27.40;;;13.70;;
72590;SDS011;60625;51.212;5.952;2023-11-21T03:59:23;28.40;;;12.50;;
72590;SDS011;60625;51.212;5.952;2023-11-21T04:04:24;29.70;;;13.10;;
72590;SDS011;60625;51.212;5.952;2023-11-21T04:09:25;29.40;;;13.80;;
72590;SDS011;60625;51.212;5.952;2023-11-21T04:14:25;30.50;;;14.00;;
72590;SDS011;60625;51.212;5.952;2023-11-21T04:19:26;28.20;;;12.90;;
72590;SDS011;60625;51.212;5.952;2023-11-21T04:24:27;33.10;;;14.00;;
72590;SDS011;60625;51.212;5.952;2023-11-21T04:29:27;33.10;;;13.10;;
72590;SDS011;60625;51.212;5.952;2023-11-21T04:34:28;38.70;;;14.80;;
72590;SDS011;60625;51.212;5.952;2023-11-21T04:39:31;44.50;;;14.70;;
72590;SDS011;60625;51.212;5.952;2023-11-21T04:44:34;41.40;;;13.10;;
72590;SDS011;60625;51.212;5.952;2023-11-21T04:49:34;54.60;;;13.20;;
72590;SDS011;60625;51.212;5.952;2023-11-21T04:54:35;36.30;;;12.80;;
72590;SDS011;60625;51.212;5.952;2023-11-21T04:59:36;48.50;;;12.30;;
72590;SDS011;60625;51.212;5.952;2023-11-21T05:04:36;38.30;;;12.60;;
72590;SDS011;60625;51.212;5.952;2023-11-21T05:09:41;41.40;;;11.90;;
72590;SDS011;60625;51.212;5.952;2023-11-21T05:14:46;42.40;;;11.80;;
72590;SDS011;60625;51.212;5.952;2023-11-21T05:19:47;41.20;;;12.00;;
72590;SDS011;60625;51.212;5.952;2023-11-21T05:24:49;47.60;;;12.10;;
72590;SDS011;60625;51.212;5.952;2023-11-21T05:29:50;47.40;;;12.40;;
72590;SDS011;60625;51.212;5.952;2023-11-21T05:34:52;44.10;;;13.10;;
72590;SDS011;60625;51.212;5.952;2023-11-21T05:39:53;42.40;;;13.00;;
72590;SDS011;60625;51.212;5.952;2023-11-21T05:44:56;40.70;;;14.10;;
72590;SDS011;60625;51.212;5.952;2023-11-21T05:49:59;49.10;;;13.00;;
72590;SDS011;60625;51.212;5.952;2023-11-21T05:55:00;59.00;;;14.10;;
72590;SDS011;60625;51.212;5.952;2023-11-21T06:00:00;49.00;;;13.20;;
72590;SDS011;60625;51.212;5.952;2023-11-21T06:05:11;47.90;;;14.00;;
72590;SDS011;60625;51.212;5.952;2023-11-21T06:10:12;44.20;;;12.20;;
72590;SDS011;60625;51.212;5.952;2023-11-21T06:15:17;40.90;;;11.10;;
72590;SDS011;60625;51.212;5.952;2023-11-21T06:20:21;50.90;;;12.80;;
72590;SDS011;60625;51.212;5.952;2023-11-21T06:25:23;46.70;;;12.20;;
72590;SDS011;60625;51.212;5.952;2023-11-21T06:30:23;41.00;;;11.80;;
72590;SDS011;60625;51.212;5.952;2023-11-21T06:35:24;46.10;;;12.60;;
72590;SDS011;60625;51.212;5.952;2023-11-21T06:40:24;45.00;;;12.30;;
72590;SDS011;60625;51.212;5.952;2023-11-21T06:45:25;39.70;;;10.20;;
72590;SDS011;60625;51.212;5.952;2023-11-21T06:50:25;43.00;;;11.30;;
72590;SDS011;60625;51.212;5.952;2023-11-21T06:55:26;40.80;;;11.30;;
72590;SDS011;60625;51.212;5.952;2023-11-21T07:00:26;47.00;;;11.70;;
72590;SDS011;60625;51.212;5.952;2023-11-21T07:05:30;41.10;;;11.80;;
72590;SDS011;60625;51.212;5.952;2023-11-21T07:10:30;39.30;;;10.60;;
72590;SDS011;60625;51.212;5.952;2023-11-21T07:15:31;41.00;;;11.60;;
72590;SDS011;60625;51.212;5.952;2023-11-21T07:20:33;45.30;;;11.10;;
72590;SDS011;60625;51.212;5.952;2023-11-21T07:25:34;49.20;;;13.70;;
72590;SDS011;60625;51.212;5.952;2023-11-21T07:30:37;42.30;;;12.30;;
72590;SDS011;60625;51.212;5.952;2023-11-21T07:35:38;41.00;;;10.50;;
72590;SDS011;60625;51.212;5.952;2023-11-21T07:40:38;43.90;;;12.30;;
72590;SDS011;60625;51.212;5.952;2023-11-21T07:45:39;45.20;;;11.20;;
72590;SDS011;60625;51.212;5.952;2023-11-21T07:50:39;45.30;;;11.70;;
72590;SDS011;60625;51.212;5.952;2023-11-21T07:55:40;42.80;;;11.60;;
72590;SDS011;60625;51.212;5.952;2023-11-21T08:00:40;45.00;;;12.90;;
72590;SDS011;60625;51.212;5.952;2023-11-21T08:05:41;50.90;;;13.10;;
72590;SDS011;60625;51.212;5.952;2023-11-21T08:10:42;46.90;;;11.60;;
72590;SDS011;60625;51.212;5.952;2023-11-21T08:15:43;52.30;;;14.20;;
72590;SDS011;60625;51.212;5.952;2023-11-21T08:20:46;48.90;;;13.00;;
72590;SDS011;60625;51.212;5.952;2023-11-21T08:25:49;53.10;;;13.70;;
72590;SDS011;60625;51.212;5.952;2023-11-21T08:30:49;49.80;;;12.20;;
72590;SDS011;60625;51.212;5.952;2023-11-21T08:35:50;51.70;;;13.40;;
72590;SDS011;60625;51.212;5.952;2023-11-21T08:40:51;49.80;;;12.70;;
72590;SDS011;60625;51.212;5.952;2023-11-21T08:45:52;56.60;;;14.90;;
72590;SDS011;60625;51.212;5.952;2023-11-21T08:50:52;61.40;;;14.60;;
72590;SDS011;60625;51.212;5.952;2023-11-21T08:55:53;56.50;;;14.40;;
72590;SDS011;60625;51.212;5.952;2023-11-21T09:00:55;66.30;;;15.40;;
72590;SDS011;60625;51.212;5.952;2023-11-21T09:05:56;58.90;;;14.70;;
72590;SDS011;60625;51.212;5.952;2023-11-21T09:10:56;70.60;;;16.50;;
72590;SDS011;60625;51.212;5.952;2023-11-21T09:15:57;67.10;;;15.70;;
72590;SDS011;60625;51.212;5.952;2023-11-21T09:20:58;72.50;;;17.40;;
72590;SDS011;60625;51.212;5.952;2023-11-21T09:26:05;67.40;;;14.90;;
72590;SDS011;60625;51.212;5.952;2023-11-21T09:31:29;60.60;;;14.20;;
72590;SDS011;60625;51.212;5.952;2023-11-21T09:36:31;61.20;;;14.40;;
72590;SDS011;60625;51.212;5.952;2023-11-21T09:41:50;56.50;;;14.90;;
72590;SDS011;60625;51.212;5.952;2023-11-21T09:46:51;54.10;;;15.20;;
72590;SDS011;60625;51.212;5.952;2023-11-21T09:51:55;49.80;;;12.10;;
72590;SDS011;60625;51.212;5.952;2023-11-21T09:56:59;59.50;;;14.20;;
72590;SDS011;60625;51.212;5.952;2023-11-21T10:02:03;50.50;;;11.80;;
72590;SDS011;60625;51.212;5.952;2023-11-21T10:07:04;56.20;;;12.70;;
72590;SDS011;60625;51.212;5.952;2023-11-21T10:12:09;50.10;;;11.10;;
72590;SDS011;60625;51.212;5.952;2023-11-21T10:17:14;45.50;;;11.50;;
72590;SDS011;60625;51.212;5.952;2023-11-21T10:22:21;47.50;;;12.00;;
72590;SDS011;60625;51.212;5.952;2023-11-21T10:27:22;49.30;;;12.30;;
72590;SDS011;60625;51.212;5.952;2023-11-21T10:32:28;39.70;;;11.70;;
72590;SDS011;60625;51.212;5.952;2023-11-21T10:37:31;45.20;;;11.70;;
72590;SDS011;60625;51.212;5.952;2023-11-21T10:42:32;47.30;;;11.90;;
72590;SDS011;60625;51.212;5.952;2023-11-21T10:47:33;41.70;;;11.40;;
72590;SDS011;60625;51.212;5.952;2023-11-21T10:52:40;38.20;;;10.90;;
72590;SDS011;60625;51.212;5.952;2023-11-21T10:57:46;48.00;;;12.00;;
72590;SDS011;60625;51.212;5.952;2023-11-21T11:02:51;47.80;;;11.50;;
72590;SDS011;60625;51.212;5.952;2023-11-21T11:08:05;42.50;;;11.30;;
72590;SDS011;60625;51.212;5.952;2023-11-21T11:13:09;39.80;;;11.00;;
72590;SDS011;60625;51.212;5.952;2023-11-21T11:18:10;40.30;;;12.20;;
72590;SDS011;60625;51.212;5.952;2023-11-21T11:23:30;43.10;;;12.40;;
72590;SDS011;60625;51.212;5.952;2023-11-21T11:28:52;38.80;;;11.90;;
72590;SDS011;60625;51.212;5.952;2023-11-21T11:34:31;33.80;;;8.80;;
72590;SDS011;60625;51.212;5.952;2023-11-21T11:39:41;30.00;;;10.10;;
72590;SDS011;60625;51.212;5.952;2023-11-21T11:50:04;27.90;;;10.80;;
72590;SDS011;60625;51.212;5.952;2023-11-21T11:55:16;34.60;;;10.90;;
72590;SDS011;60625;51.212;5.952;2023-11-21T12:00:22;29.40;;;10.70;;
72590;SDS011;60625;51.212;5.952;2023-11-21T12:05:32;32.50;;;12.10;;
72590;SDS011;60625;51.212;5.952;2023-11-21T12:10:37;24.50;;;10.10;;
72590;SDS011;60625;51.212;5.952;2023-11-21T12:15:43;21.20;;;8.50;;
72590;SDS011;60625;51.212;5.952;2023-11-21T12:20:51;21.20;;;8.70;;
72590;SDS011;60625;51.212;5.952;2023-11-21T12:25:52;16.20;;;7.10;;
72590;SDS011;60625;51.212;5.952;2023-11-21T12:30:54;16.10;;;6.90;;
72590;SDS011;60625;51.212;5.952;2023-11-21T12:35:57;19.00;;;7.50;;
72590;SDS011;60625;51.212;5.952;2023-11-21T12:40:59;16.80;;;7.60;;
72590;SDS011;60625;51.212;5.952;2023-11-21T12:46:07;18.60;;;7.10;;
72590;SDS011;60625;51.212;5.952;2023-11-21T12:51:12;20.70;;;9.30;;
72590;SDS011;60625;51.212;5.952;2023-11-21T12:56:14;26.10;;;9.10;;
72590;SDS011;60625;51.212;5.952;2023-11-21T13:01:17;24.70;;;10.20;;
72590;SDS011;60625;51.212;5.952;2023-11-21T13:06:19;29.20;;;10.90;;
72590;SDS011;60625;51.212;5.952;2023-11-21T13:11:21;30.70;;;12.50;;
72590;SDS011;60625;51.212;5.952;2023-11-21T13:16:23;33.50;;;13.20;;
72590;SDS011;60625;51.212;5.952;2023-11-21T13:21:24;36.40;;;13.00;;
72590;SDS011;60625;51.212;5.952;2023-11-21T13:26:25;29.40;;;12.70;;
72590;SDS011;60625;51.212;5.952;2023-11-21T13:31:26;30.10;;;11.60;;
72590;SDS011;60625;51.212;5.952;2023-11-21T13:36:29;29.00;;;11.20;;
72590;SDS011;60625;51.212;5.952;2023-11-21T13:41:33;27.50;;;10.60;;
72590;SDS011;60625;51.212;5.952;2023-11-21T13:46:34;21.50;;;8.70;;
72590;SDS011;60625;51.212;5.952;2023-11-21T13:51:37;25.50;;;11.20;;
72590;SDS011;60625;51.212;5.952;2023-11-21T13:56:46;19.90;;;9.60;;
72590;SDS011;60625;51.212;5.952;2023-11-21T14:01:47;23.30;;;8.40;;
72590;SDS011;60625;51.212;5.952;2023-11-21T14:06:53;19.50;;;7.80;;
72590;SDS011;60625;51.212;5.952;2023-11-21T14:11:56;16.40;;;6.90;;
72590;SDS011;60625;51.212;5.952;2023-11-21T14:16:57;15.30;;;6.70;;
72590;SDS011;60625;51.212;5.952;2023-11-21T14:21:59;17.10;;;7.10;;
72590;SDS011;60625;51.212;5.952;2023-11-21T14:27:01;15.20;;;6.90;;
72590;SDS011;60625;51.212;5.952;2023-11-21T14:32:03;14.90;;;6.60;;
72590;SDS011;60625;51.212;5.952;2023-11-21T14:37:05;13.90;;;6.30;;
72590;SDS011;60625;51.212;5.952;2023-11-21T14:42:07;13.00;;;6.20;;
72590;SDS011;60625;51.212;5.952;2023-11-21T14:47:08;15.30;;;7.70;;
72590;SDS011;60625;51.212;5.952;2023-11-21T14:52:15;14.00;;;6.30;;
72590;SDS011;60625;51.212;5.952;2023-11-21T14:57:34;13.40;;;6.90;;
72590;SDS011;60625;51.212;5.952;2023-11-21T15:02:36;14.10;;;7.20;;
72590;SDS011;60625;51.212;5.952;2023-11-21T15:07:49;16.10;;;8.20;;
72590;SDS011;60625;51.212;5.952;2023-11-21T15:12:50;15.00;;;8.70;;
72590;SDS011;60625;51.212;5.952;2023-11-21T15:17:50;16.50;;;9.60;;
72590;SDS011;60625;51.212;5.952;2023-11-21T15:22:51;22.20;;;11.20;;
72590;SDS011;60625;51.212;5.952;2023-11-21T15:27:54;20.90;;;11.90;;
72590;SDS011;60625;51.212;5.952;2023-11-21T15:32:54;21.60;;;11.20;;
72590;SDS011;60625;51.212;5.952;2023-11-21T15:37:55;22.10;;;12.30;;
72590;SDS011;60625;51.212;5.952;2023-11-21T15:42:58;21.20;;;12.10;;
72590;SDS011;60625;51.212;5.952;2023-11-21T15:47:59;21.60;;;11.60;;
72590;SDS011;60625;51.212;5.952;2023-11-21T15:53:01;20.30;;;11.10;;
72590;SDS011;60625;51.212;5.952;2023-11-21T15:58:03;20.80;;;11.30;;
72590;SDS011;60625;51.212;5.952;2023-11-21T16:03:05;23.40;;;12.30;;
72590;SDS011;60625;51.212;5.952;2023-11-21T16:08:05;28.40;;;13.50;;
72590;SDS011;60625;51.212;5.952;2023-11-21T16:13:06;25.70;;;13.80;;
72590;SDS011;60625;51.212;5.952;2023-11-21T16:18:08;26.30;;;13.60;;
72590;SDS011;60625;51.212;5.952;2023-11-21T16:23:08;27.40;;;13.50;;
72590;SDS011;60625;51.212;5.952;2023-11-21T16:28:09;28.50;;;13.20;;
72590;SDS011;60625;51.212;5.952;2023-11-21T16:33:10;29.10;;;12.40;;
72590;SDS011;60625;51.212;5.952;2023-11-21T16:38:11;26.30;;;11.40;;
72590;SDS011;60625;51.212;5.952;2023-11-21T16:43:12;30.00;;;12.50;;
72590;SDS011;60625;51.212;5.952;2023-11-21T16:48:13;28.50;;;12.50;;
72590;SDS011;60625;51.212;5.952;2023-11-21T16:53:13;23.00;;;10.90;;
72590;SDS011;60625;51.212;5.952;2023-11-21T16:58:14;31.10;;;12.90;;
72590;SDS011;60625;51.212;5.952;2023-11-21T17:03:16;32.40;;;13.30;;
72590;SDS011;60625;51.212;5.952;2023-11-21T17:08:17;31.00;;;13.20;;
72590;SDS011;60625;51.212;5.952;2023-11-21T17:13:19;31.90;;;13.90;;
72590;SDS011;60625;51.212;5.952;2023-11-21T17:18:20;26.80;;;11.40;;
72590;SDS011;60625;51.212;5.952;2023-11-21T17:23:20;24.40;;;10.90;;
72590;SDS011;60625;51.212;5.952;2023-11-21T17:28:21;25.80;;;11.30;;
72590;SDS011;60625;51.212;5.952;2023-11-21T17:33:22;24.60;;;11.30;;
72590;SDS011;60625;51.212;5.952;2023-11-21T17:38:22;23.10;;;10.50;;
72590;SDS011;60625;51.212;5.952;2023-11-21T17:43:23;32.40;;;12.60;;
72590;SDS011;60625;51.212;5.952;2023-11-21T17:48:23;25.50;;;11.50;;
72590;SDS011;60625;51.212;5.952;2023-11-21T17:53:26;23.20;;;10.80;;
72590;SDS011;60625;51.212;5.952;2023-11-21T17:58:26;23.90;;;10.10;;
72590;SDS011;60625;51.212;5.952;2023-11-21T18:03:28;17.90;;;9.50;;
72590;SDS011;60625;51.212;5.952;2023-11-21T18:08:28;16.70;;;9.00;;
72590;SDS011;60625;51.212;5.952;2023-11-21T18:13:29;18.70;;;9.40;;
72590;SDS011;60625;51.212;5.952;2023-11-21T18:18:30;14.90;;;9.00;;
72590;SDS011;60625;51.212;5.952;2023-11-21T18:23:30;19.00;;;10.20;;
72590;SDS011;60625;51.212;5.952;2023-11-21T18:28:31;19.20;;;10.20;;
72590;SDS011;60625;51.212;5.952;2023-11-21T18:33:32;17.80;;;9.40;;
72590;SDS011;60625;51.212;5.952;2023-11-21T18:38:34;17.30;;;9.10;;
72590;SDS011;60625;51.212;5.952;2023-11-21T18:43:36;13.00;;;8.00;;
72590;SDS011;60625;51.212;5.952;2023-11-21T18:48:37;12.80;;;7.10;;
72590;SDS011;60625;51.212;5.952;2023-11-21T18:53:37;12.70;;;7.10;;
72590;SDS011;60625;51.212;5.952;2023-11-21T18:58:40;14.70;;;7.70;;
72590;SDS011;60625;51.212;5.952;2023-11-21T19:03:43;15.10;;;7.50;;
72590;SDS011;60625;51.212;5.952;2023-11-21T19:08:44;12.20;;;7.20;;
72590;SDS011;60625;51.212;5.952;2023-11-21T19:13:44;12.50;;;7.30;;
72590;SDS011;60625;51.212;5.952;2023-11-21T19:18:45;14.60;;;7.60;;
72590;SDS011;60625;51.212;5.952;2023-11-21T19:23:46;13.10;;;7.30;;
72590;SDS011;60625;51.212;5.952;2023-11-21T19:28:47;11.90;;;7.60;;
72590;SDS011;60625;51.212;5.952;2023-11-21T19:33:48;13.80;;;6.80;;
72590;SDS011;60625;51.212;5.952;2023-11-21T19:38:49;13.40;;;7.60;;
72590;SDS011;60625;51.212;5.952;2023-11-21T19:43:51;13.70;;;7.20;;
72590;SDS011;60625;51.212;5.952;2023-11-21T19:48:51;16.90;;;8.30;;
72590;SDS011;60625;51.212;5.952;2023-11-21T19:53:53;14.80;;;8.50;;
72590;SDS011;60625;51.212;5.952;2023-11-21T19:58:54;14.00;;;7.40;;
72590;SDS011;60625;51.212;5.952;2023-11-21T20:03:55;18.60;;;8.10;;
72590;SDS011;60625;51.212;5.952;2023-11-21T20:08:56;16.20;;;8.10;;
72590;SDS011;60625;51.212;5.952;2023-11-21T20:13:58;16.10;;;8.70;;
72590;SDS011;60625;51.212;5.952;2023-11-21T20:19:03;15.90;;;9.10;;
72590;SDS011;60625;51.212;5.952;2023-11-21T20:24:04;17.40;;;8.90;;
72590;SDS011;60625;51.212;5.952;2023-11-21T20:29:06;17.30;;;9.30;;
72590;SDS011;60625;51.212;5.952;2023-11-21T20:34:06;16.80;;;9.60;;
72590;SDS011;60625;51.212;5.952;2023-11-21T20:39:07;18.20;;;10.20;;
72590;SDS011;60625;51.212;5.952;2023-11-21T20:44:08;20.20;;;10.60;;
72590;SDS011;60625;51.212;5.952;2023-11-21T20:49:09;19.20;;;10.80;;
72590;SDS011;60625;51.212;5.952;2023-11-21T20:54:10;18.10;;;10.30;;
72590;SDS011;60625;51.212;5.952;2023-11-21T20:59:11;19.20;;;11.60;;
72590;SDS011;60625;51.212;5.952;2023-11-21T21:04:12;20.50;;;11.20;;
72590;SDS011;60625;51.212;5.952;2023-11-21T21:09:13;20.10;;;11.30;;
72590;SDS011;60625;51.212;5.952;2023-11-21T21:14:14;17.20;;;10.80;;
72590;SDS011;60625;51.212;5.952;2023-11-21T21:19:15;19.50;;;10.90;;
72590;SDS011;60625;51.212;5.952;2023-11-21T21:24:16;21.20;;;12.10;;
72590;SDS011;60625;51.212;5.952;2023-11-21T21:29:16;22.60;;;12.00;;
72590;SDS011;60625;51.212;5.952;2023-11-21T21:34:18;20.20;;;12.00;;
72590;SDS011;60625;51.212;5.952;2023-11-21T21:39:18;20.50;;;10.80;;
72590;SDS011;60625;51.212;5.952;2023-11-21T21:44:19;19.10;;;10.60;;
72590;SDS011;60625;51.212;5.952;2023-11-21T21:49:20;22.20;;;12.10;;
72590;SDS011;60625;51.212;5.952;2023-11-21T21:54:20;23.70;;;13.60;;
72590;SDS011;60625;51.212;5.952;2023-11-21T21:59:23;26.00;;;11.60;;
72590;SDS011;60625;51.212;5.952;2023-11-21T22:04:23;22.30;;;12.40;;
72590;SDS011;60625;51.212;5.952;2023-11-21T22:09:24;22.90;;;12.50;;
72590;SDS011;60625;51.212;5.952;2023-11-21T22:14:25;23.00;;;11.50;;
72590;SDS011;60625;51.212;5.952;2023-11-21T22:19:26;20.80;;;12.30;;
72590;SDS011;60625;51.212;5.952;2023-11-21T22:24:26;21.10;;;12.00;;
72590;SDS011;60625;51.212;5.952;2023-11-21T22:29:28;21.40;;;12.50;;
72590;SDS011;60625;51.212;5.952;2023-11-21T22:34:29;22.60;;;11.50;;
72590;SDS011;60625;51.212;5.952;2023-11-21T22:39:29;19.60;;;10.90;;
72590;SDS011;60625;51.212;5.952;2023-11-21T22:44:30;22.40;;;11.50;;
72590;SDS011;60625;51.212;5.952;2023-11-21T22:49:31;21.20;;;11.50;;
72590;SDS011;60625;51.212;5.952;2023-11-21T22:54:31;21.60;;;11.90;;
72590;SDS011;60625;51.212;5.952;2023-11-21T22:59:32;22.80;;;11.90;;
72590;SDS011;60625;51.212;5.952;2023-11-21T23:04:32;21.50;;;12.30;;
72590;SDS011;60625;51.212;5.952;2023-11-21T23:09:33;22.00;;;12.40;;
72590;SDS011;60625;51.212;5.952;2023-11-21T23:14:35;21.20;;;11.20;;
72590;SDS011;60625;51.212;5.952;2023-11-21T23:19:37;20.50;;;11.90;;
72590;SDS011;60625;51.212;5.952;2023-11-21T23:24:38;20.70;;;10.90;;
72590;SDS011;60625;51.212;5.952;2023-11-21T23:29:41;21.70;;;11.50;;
72590;SDS011;60625;51.212;5.952;2023-11-21T23:34:45;20.80;;;10.70;;
72590;SDS011;60625;51.212;5.952;2023-11-21T23:39:45;18.60;;;9.60;;
72590;SDS011;60625;51.212;5.952;2023-11-21T23:44:46;20.10;;;11.20;;
72590;SDS011;60625;51.212;5.952;2023-11-21T23:49:46;21.70;;;11.80;;
72590;SDS011;60625;51.212;5.952;2023-11-21T23:54:47;21.40;;;10.60;;
72590;SDS011;60625;51.212;5.952;2023-11-21T23:59:48;17.70;;;9.60;;
